createdAt,value
2023-03-31T00:00:35.328Z,7.60
2023-03-31T00:03:03.067Z,3.57
2023-03-31T00:05:30.180Z,4.27
2023-03-31T00:08:01.142Z,5.33
2023-03-31T00:10:29.130Z,5.70
2023-03-31T00:12:56.096Z,6.47
2023-03-31T00:15:22.989Z,7.87
2023-03-31T00:17:50.031Z,3.70
2023-03-31T00:20:17.257Z,8.33
2023-03-31T00:22:46.816Z,9.30
2023-03-31T00:25:15.390Z,5.80
2023-03-31T00:27:46.421Z,8.50
2023-03-31T00:30:14.689Z,7.10
2023-03-31T00:32:41.887Z,5.43
2023-03-31T00:35:09.029Z,8.07
2023-03-31T00:37:35.894Z,5.73
2023-03-31T00:40:09.739Z,4.97
2023-03-31T00:42:43.930Z,5.60
2023-03-31T00:45:13.992Z,5.60
2023-03-31T00:47:47.700Z,5.73
2023-03-31T00:50:25.945Z,5.00
2023-03-31T00:52:58.993Z,6.20
2023-03-31T00:55:33.284Z,5.43
2023-03-31T00:58:01.974Z,7.47
2023-03-31T01:00:30.258Z,4.13
2023-03-31T01:03:01.626Z,4.67
2023-03-31T01:05:36.664Z,6.30
2023-03-31T01:08:05.888Z,4.30
2023-03-31T01:10:41.865Z,4.70
2023-03-31T01:13:11.203Z,6.07
2023-03-31T01:15:39.128Z,5.53
2023-03-31T01:18:06.957Z,6.57
2023-03-31T01:21:03.753Z,7.67
2023-03-31T01:23:49.365Z,9.10
2023-03-31T01:26:46.491Z,5.30
2023-03-31T01:29:50.394Z,9.97
2023-03-31T01:32:44.640Z,6.90
2023-03-31T01:35:48.627Z,7.27
2023-03-31T01:38:46.187Z,10.10
2023-03-31T01:41:22.712Z,8.77
2023-03-31T01:44:08.322Z,7.27
2023-03-31T01:46:46.444Z,7.30
2023-03-31T01:49:35.385Z,10.37
2023-03-31T01:52:11.522Z,8.40
2023-03-31T01:54:55.412Z,8.73
2023-03-31T01:57:32.172Z,8.40
2023-03-31T02:00:09.781Z,8.77
2023-03-31T02:02:48.407Z,8.67
2023-03-31T02:05:29.247Z,7.67
2023-03-31T02:08:09.226Z,7.20
2023-03-31T02:10:36.890Z,9.67
2023-03-31T02:13:05.237Z,9.57
2023-03-31T02:15:38.323Z,7.73
2023-03-31T02:18:11.409Z,7.27
2023-03-31T02:20:46.210Z,10.00
2023-03-31T02:23:16.818Z,6.90
2023-03-31T02:26:04.508Z,10.00
2023-03-31T02:28:32.397Z,8.00
2023-03-31T02:31:27.038Z,9.47
2023-03-31T02:33:54.313Z,9.50
2023-03-31T02:36:21.754Z,8.00
2023-03-31T02:38:59.304Z,6.50
2023-03-31T02:41:27.863Z,9.07
2023-03-31T02:43:56.714Z,7.60
2023-03-31T02:46:24.805Z,6.10
2023-03-31T02:48:56.869Z,6.43
2023-03-31T02:51:38.828Z,6.80
2023-03-31T02:54:44.188Z,5.03
2023-03-31T02:57:17.134Z,6.03
2023-03-31T03:00:13.219Z,5.70
2023-03-31T03:03:14.559Z,3.47
2023-03-31T03:05:49.980Z,5.73
2023-03-31T03:09:22.590Z,5.13
2023-03-31T03:12:12.308Z,5.10
2023-03-31T03:15:03.328Z,8.37
2023-03-31T03:17:32.425Z,5.13
2023-03-31T03:20:02.101Z,4.70
2023-03-31T03:22:28.985Z,5.10
2023-03-31T03:24:55.921Z,5.13
2023-03-31T03:27:22.894Z,5.13
2023-03-31T03:29:49.832Z,5.27
2023-03-31T03:32:16.806Z,5.30
2023-03-31T03:34:43.814Z,6.70
2023-03-31T03:37:10.921Z,5.03
2023-03-31T03:39:37.791Z,6.97
2023-03-31T03:42:04.882Z,7.00
2023-03-31T03:44:31.816Z,5.90
2023-03-31T03:46:58.801Z,6.63
2023-03-31T03:49:25.591Z,9.40
2023-03-31T03:51:52.799Z,15.70
2023-03-31T03:54:19.669Z,12.50
2023-03-31T03:56:46.863Z,8.83
2023-03-31T03:59:13.781Z,8.33
2023-03-31T04:01:40.825Z,14.10
2023-03-31T04:04:07.754Z,8.73
2023-03-31T04:06:35.258Z,19.47
2023-03-31T04:09:03.357Z,15.10
2023-03-31T04:11:30.722Z,8.20
2023-03-31T04:13:57.574Z,12.77
2023-03-31T04:16:25.586Z,6.27
2023-03-31T04:18:56.607Z,8.83
2023-03-31T04:21:23.903Z,7.70
2023-03-31T04:23:58.734Z,10.70
2023-03-31T04:26:30.991Z,8.67
2023-03-31T04:29:01.241Z,8.13
2023-03-31T04:31:30.908Z,6.57
2023-03-31T04:34:02.533Z,5.67
2023-03-31T04:36:31.504Z,6.07
2023-03-31T04:38:58.519Z,5.80
2023-03-31T04:41:27.592Z,7.37
2023-03-31T04:43:54.644Z,5.47
2023-03-31T04:46:22.087Z,6.83
2023-03-31T04:48:49.131Z,5.20
2023-03-31T04:51:16.461Z,6.00
2023-03-31T04:53:43.303Z,7.03
2023-03-31T04:56:10.706Z,4.87
2023-03-31T04:58:37.701Z,5.93
2023-03-31T05:01:08.249Z,10.27
2023-03-31T05:03:35.242Z,7.47
2023-03-31T05:06:02.136Z,6.57
2023-03-31T05:08:29.093Z,7.60
2023-03-31T05:10:55.936Z,8.17
2023-03-31T05:13:22.700Z,5.73
2023-03-31T05:15:51.680Z,7.47
2023-03-31T05:18:18.540Z,7.67
2023-03-31T05:20:45.425Z,9.53
2023-03-31T05:23:12.784Z,7.50
2023-03-31T05:25:39.674Z,9.70
2023-03-31T05:28:06.552Z,10.67
2023-03-31T05:30:33.336Z,8.27
2023-03-31T05:33:00.271Z,10.47
2023-03-31T05:35:27.389Z,10.70
2023-03-31T05:37:54.210Z,9.40
2023-03-31T05:40:21.023Z,11.63
2023-03-31T05:42:47.905Z,10.90
2023-03-31T05:45:14.715Z,8.50
2023-03-31T05:47:41.659Z,7.97
2023-03-31T05:50:09.280Z,9.97
2023-03-31T05:52:36.551Z,10.63
2023-03-31T05:55:04.337Z,11.10
2023-03-31T05:57:31.448Z,10.83
2023-03-31T05:59:58.515Z,9.63
2023-03-31T06:02:25.748Z,11.33
2023-03-31T06:04:52.695Z,12.50
2023-03-31T06:07:19.570Z,12.30
2023-03-31T06:09:46.822Z,13.27
2023-03-31T06:12:13.991Z,15.20
2023-03-31T06:14:40.785Z,10.63
2023-03-31T06:17:07.760Z,12.20
2023-03-31T06:19:34.777Z,11.40
2023-03-31T06:22:01.677Z,12.20
2023-03-31T06:24:28.561Z,11.90
2023-03-31T06:26:55.589Z,13.60
2023-03-31T06:29:22.445Z,9.37
2023-03-31T06:31:49.244Z,10.17
2023-03-31T06:34:16.661Z,10.43
2023-03-31T06:36:44.636Z,12.47
2023-03-31T06:39:11.512Z,11.47
2023-03-31T06:41:39.123Z,10.27
2023-03-31T06:44:06.058Z,10.47
2023-03-31T06:46:33.016Z,9.77
2023-03-31T06:48:59.924Z,10.30
2023-03-31T06:51:26.715Z,9.07
2023-03-31T06:53:53.544Z,9.70
2023-03-31T06:56:20.406Z,7.67
2023-03-31T06:58:47.217Z,9.60
2023-03-31T07:01:14.156Z,8.80
2023-03-31T07:03:41.123Z,10.53
2023-03-31T07:06:08.120Z,9.87
2023-03-31T07:08:34.942Z,9.57
2023-03-31T07:11:02.463Z,7.67
2023-03-31T07:13:29.719Z,10.27
2023-03-31T07:15:56.806Z,9.37
2023-03-31T07:18:34.395Z,6.83
2023-03-31T07:21:02.239Z,11.03
2023-03-31T07:23:29.216Z,11.70
2023-03-31T07:25:56.083Z,10.13
2023-03-31T07:28:22.909Z,8.60
2023-03-31T07:30:49.771Z,8.47
2023-03-31T07:33:16.621Z,8.70
2023-03-31T07:35:43.761Z,8.70
2023-03-31T07:38:11.882Z,10.27
2023-03-31T07:40:40.047Z,7.63
2023-03-31T07:43:07.335Z,11.13
2023-03-31T07:45:34.576Z,10.77
2023-03-31T07:48:01.642Z,10.53
2023-03-31T07:50:28.548Z,8.03
2023-03-31T07:52:57.114Z,8.30
2023-03-31T07:55:24.119Z,8.17
2023-03-31T07:57:51.404Z,7.53
2023-03-31T08:00:18.886Z,8.30
2023-03-31T08:02:46.317Z,7.23
2023-03-31T08:05:15.051Z,6.23
2023-03-31T08:07:44.062Z,5.53
2023-03-31T08:10:15.323Z,4.37
2023-03-31T08:12:42.466Z,3.90
2023-03-31T08:15:10.117Z,3.20
2023-03-31T08:17:37.430Z,5.67
2023-03-31T08:20:09.198Z,3.27
2023-03-31T08:22:40.433Z,3.20
2023-03-31T08:25:10.997Z,2.20
2023-03-31T08:27:39.956Z,3.97
2023-03-31T08:30:08.808Z,2.60
2023-03-31T08:32:36.199Z,3.23
2023-03-31T08:35:03.136Z,2.77
2023-03-31T08:37:30.218Z,2.33
2023-03-31T08:39:57.179Z,2.80
2023-03-31T08:42:41.895Z,4.07
2023-03-31T08:45:25.788Z,4.00
2023-03-31T08:47:57.993Z,3.13
2023-03-31T08:50:28.606Z,2.87
2023-03-31T08:53:05.912Z,4.33
2023-03-31T08:55:51.619Z,2.83
2023-03-31T08:58:21.530Z,2.87
2023-03-31T09:00:59.113Z,3.50
2023-03-31T09:03:36.586Z,3.37
2023-03-31T09:06:14.820Z,2.77
2023-03-31T09:08:42.778Z,3.83
2023-03-31T09:11:47.780Z,4.77
2023-03-31T09:14:20.601Z,2.87
2023-03-31T09:16:50.479Z,3.17
2023-03-31T09:19:36.673Z,4.73
2023-03-31T09:22:08.915Z,3.50
2023-03-31T09:24:48.864Z,5.00
2023-03-31T09:27:15.856Z,4.27
2023-03-31T09:29:59.957Z,4.33
2023-03-31T09:32:30.533Z,3.43
2023-03-31T09:35:12.761Z,3.37
2023-03-31T09:37:39.613Z,3.93
2023-03-31T09:40:07.983Z,6.10
2023-03-31T09:42:38.897Z,2.07
2023-03-31T09:45:06.497Z,3.10
2023-03-31T09:47:42.978Z,4.60
2023-03-31T09:50:10.818Z,5.77
2023-03-31T09:52:41.013Z,2.27
2023-03-31T09:55:25.245Z,4.90
2023-03-31T09:58:01.966Z,4.30
2023-03-31T10:00:29.076Z,2.70
2023-03-31T10:02:57.538Z,3.50
2023-03-31T10:05:40.056Z,4.23
2023-03-31T10:08:39.577Z,3.97
2023-03-31T10:11:07.038Z,3.60
2023-03-31T10:13:52.196Z,2.67
2023-03-31T10:16:31.264Z,3.27
2023-03-31T10:19:19.293Z,3.30
2023-03-31T10:21:48.096Z,3.60
2023-03-31T10:24:19.491Z,6.30
2023-03-31T10:26:52.299Z,4.57
2023-03-31T10:29:30.913Z,5.37
2023-03-31T10:32:18.686Z,5.83
2023-03-31T10:34:46.392Z,5.73
2023-03-31T10:37:22.630Z,4.57
2023-03-31T10:39:58.566Z,5.30
2023-03-31T10:42:26.224Z,7.00
2023-03-31T10:45:16.333Z,3.57
2023-03-31T10:47:53.960Z,2.93
2023-03-31T10:50:28.495Z,2.73
2023-03-31T10:53:05.622Z,4.03
2023-03-31T10:56:04.172Z,3.60
2023-03-31T10:59:10.630Z,6.80
2023-03-31T11:01:55.650Z,3.53
2023-03-31T11:04:41.724Z,4.93
2023-03-31T11:07:44.906Z,4.87
2023-03-31T11:10:23.577Z,6.87
2023-03-31T11:12:59.285Z,5.07
2023-03-31T11:15:35.757Z,6.47
2023-03-31T11:18:12.470Z,5.10
2023-03-31T11:21:01.772Z,5.03
2023-03-31T11:24:09.366Z,6.83
2023-03-31T11:26:46.512Z,7.87
2023-03-31T11:29:19.062Z,4.20
2023-03-31T11:31:50.044Z,7.27
2023-03-31T11:34:23.004Z,4.80
2023-03-31T11:37:11.967Z,8.17
2023-03-31T11:39:44.890Z,5.00
2023-03-31T11:42:27.627Z,6.23
2023-03-31T11:45:04.470Z,5.83
2023-03-31T11:47:37.228Z,5.97
2023-03-31T11:50:12.128Z,3.90
2023-03-31T11:52:50.617Z,3.17
2023-03-31T11:55:21.567Z,3.67
2023-03-31T11:58:03.643Z,2.87
2023-03-31T12:00:38.446Z,4.03
2023-03-31T12:03:29.631Z,3.53
2023-03-31T12:06:06.475Z,4.47
2023-03-31T12:09:01.741Z,4.23
2023-03-31T12:11:38.977Z,4.77
2023-03-31T12:14:24.193Z,4.73
2023-03-31T12:17:00.539Z,3.57
2023-03-31T12:19:53.867Z,4.47
2023-03-31T12:22:34.307Z,1.03
2023-03-31T12:25:02.042Z,1.63
2023-03-31T12:27:40.448Z,3.30
2023-03-31T12:30:20.401Z,3.67
2023-03-31T12:32:55.549Z,3.43
2023-03-31T12:35:29.612Z,2.47
2023-03-31T12:38:30.292Z,0.93
2023-03-31T12:41:24.943Z,1.40
2023-03-31T12:43:56.917Z,1.90
2023-03-31T12:46:34.678Z,0.90
2023-03-31T12:49:25.877Z,1.40
2023-03-31T12:52:02.106Z,1.27
2023-03-31T12:54:28.997Z,3.00
2023-03-31T12:57:08.909Z,2.07
2023-03-31T12:59:38.235Z,1.17
2023-03-31T13:02:15.075Z,1.80
2023-03-31T13:04:42.864Z,2.20
2023-03-31T13:07:33.686Z,4.10
2023-03-31T13:10:25.802Z,5.07
2023-03-31T13:13:04.073Z,2.20
2023-03-31T13:15:31.958Z,2.90
2023-03-31T13:18:07.397Z,2.93
2023-03-31T13:20:40.459Z,2.43
2023-03-31T13:23:25.518Z,2.17
2023-03-31T13:25:54.225Z,4.97
2023-03-31T13:28:24.116Z,2.30
2023-03-31T13:31:02.024Z,3.27
2023-03-31T13:33:47.693Z,3.63
2023-03-31T13:36:32.658Z,3.00
2023-03-31T13:39:12.688Z,2.30
2023-03-31T13:41:56.388Z,2.30
2023-03-31T13:44:51.073Z,5.50
2023-03-31T13:47:31.037Z,3.00
2023-03-31T13:50:26.140Z,2.57
2023-03-31T13:53:08.086Z,4.77
2023-03-31T13:55:54.752Z,3.87
2023-03-31T13:58:35.412Z,4.80
2023-03-31T14:01:19.939Z,3.53
2023-03-31T14:04:02.827Z,6.73
2023-03-31T14:06:35.634Z,8.43
2023-03-31T14:09:07.870Z,5.77
2023-03-31T14:11:34.674Z,6.03
2023-03-31T14:14:07.531Z,6.77
2023-03-31T14:16:39.071Z,4.37
2023-03-31T14:19:33.196Z,3.00
2023-03-31T14:22:18.032Z,3.67
2023-03-31T14:25:16.851Z,3.80
2023-03-31T14:27:49.893Z,4.93
2023-03-31T14:30:46.932Z,3.80
2023-03-31T14:33:19.602Z,4.43
2023-03-31T14:35:59.423Z,4.13
2023-03-31T14:38:29.764Z,4.30
2023-03-31T14:41:01.042Z,2.83
2023-03-31T14:43:33.582Z,6.27
2023-03-31T14:46:08.519Z,3.13
2023-03-31T14:48:45.302Z,3.73
2023-03-31T14:51:16.501Z,2.30
2023-03-31T14:53:43.563Z,2.53
2023-03-31T14:56:15.889Z,2.43
2023-03-31T14:58:50.071Z,3.23
2023-03-31T15:01:23.908Z,1.13
2023-03-31T15:03:53.432Z,3.17
2023-03-31T15:06:20.551Z,0.80
2023-03-31T15:08:47.768Z,1.13
2023-03-31T15:11:20.811Z,1.93
2023-03-31T15:14:04.567Z,2.30
2023-03-31T15:16:43.432Z,1.40
2023-03-31T15:19:21.153Z,5.67
2023-03-31T15:22:10.583Z,5.03
2023-03-31T15:24:37.571Z,3.10
2023-03-31T15:27:09.350Z,3.83
2023-03-31T15:29:47.854Z,4.60
2023-03-31T15:32:34.548Z,3.13
2023-03-31T15:35:18.708Z,3.00
2023-03-31T15:37:49.787Z,1.07
2023-03-31T15:40:22.426Z,1.03
2023-03-31T15:43:24.563Z,2.03
2023-03-31T15:45:53.620Z,0.87
2023-03-31T15:48:36.549Z,0.70
2023-03-31T15:51:14.922Z,1.37
2023-03-31T15:53:53.773Z,1.33
2023-03-31T15:56:32.339Z,3.03
2023-03-31T15:59:06.878Z,2.23
2023-03-31T16:01:43.070Z,1.23
2023-03-31T16:04:13.470Z,0.70
2023-03-31T16:06:50.557Z,2.47
2023-03-31T16:09:23.960Z,1.23
2023-03-31T16:12:02.356Z,1.20
2023-03-31T16:14:38.964Z,2.83
2023-03-31T16:17:20.340Z,3.23
2023-03-31T16:19:52.852Z,4.93
2023-03-31T16:22:25.351Z,3.20
2023-03-31T16:24:52.334Z,1.60
2023-03-31T16:27:19.376Z,3.10
2023-03-31T16:29:47.484Z,3.20
2023-03-31T16:32:18.311Z,2.23
2023-03-31T16:34:59.932Z,3.47
2023-03-31T16:37:27.261Z,3.37
2023-03-31T16:39:54.169Z,2.23
2023-03-31T16:42:21.620Z,2.63
2023-03-31T16:44:59.921Z,2.60
2023-03-31T16:47:36.519Z,4.17
2023-03-31T16:50:07.457Z,3.70
2023-03-31T16:52:35.836Z,2.30
2023-03-31T16:55:02.803Z,2.93
2023-03-31T16:57:29.718Z,3.70
2023-03-31T16:59:58.842Z,2.60
2023-03-31T17:02:26.190Z,4.97
2023-03-31T17:04:56.646Z,3.83
2023-03-31T17:07:27.068Z,3.53
2023-03-31T17:09:53.972Z,3.87
2023-03-31T17:12:20.895Z,2.27
2023-03-31T17:14:47.756Z,3.83
2023-03-31T17:17:17.303Z,2.90
2023-03-31T17:19:44.757Z,3.03
2023-03-31T17:22:12.055Z,4.23
2023-03-31T17:24:40.330Z,2.63
2023-03-31T17:27:07.302Z,2.37
2023-03-31T17:29:34.150Z,4.47
2023-03-31T17:32:01.216Z,2.27
2023-03-31T17:34:28.078Z,4.07
2023-03-31T17:36:55.697Z,2.70
2023-03-31T17:39:22.776Z,3.73
2023-03-31T17:41:49.536Z,4.77
2023-03-31T17:44:16.558Z,4.50
2023-03-31T17:46:43.471Z,4.17
2023-03-31T17:49:11.181Z,4.63
2023-03-31T17:51:38.076Z,4.60
2023-03-31T17:54:04.938Z,2.63
2023-03-31T17:56:31.847Z,3.93
2023-03-31T17:58:58.684Z,5.03
2023-03-31T18:01:25.692Z,3.40
2023-03-31T18:03:55.558Z,3.47
2023-03-31T18:06:22.420Z,2.00
2023-03-31T18:08:49.301Z,4.97
2023-03-31T18:11:16.162Z,3.23
2023-03-31T18:13:43.222Z,4.03
2023-03-31T18:16:13.030Z,6.33
2023-03-31T18:18:40.389Z,3.10
2023-03-31T18:21:09.488Z,4.00
2023-03-31T18:23:37.596Z,3.80
2023-03-31T18:26:09.897Z,3.53
2023-03-31T18:28:37.079Z,7.03
2023-03-31T18:31:05.396Z,3.30
2023-03-31T18:33:32.448Z,2.10
2023-03-31T18:35:59.482Z,3.37
2023-03-31T18:38:29.745Z,2.17
2023-03-31T18:40:56.961Z,2.80
2023-03-31T18:43:24.881Z,3.70
2023-03-31T18:45:53.808Z,1.23
2023-03-31T18:48:22.047Z,3.43
2023-03-31T18:50:49.686Z,3.90
2023-03-31T18:53:17.701Z,3.13
2023-03-31T18:55:48.866Z,5.57
2023-03-31T18:58:15.663Z,2.10
2023-03-31T19:00:42.562Z,3.67
2023-03-31T19:03:09.487Z,3.73
2023-03-31T19:05:37.026Z,2.30
2023-03-31T19:08:03.857Z,2.53
2023-03-31T19:10:31.638Z,2.20
2023-03-31T19:12:58.910Z,2.70
2023-03-31T19:15:27.828Z,4.67
2023-03-31T19:17:55.051Z,4.03
2023-03-31T19:20:22.129Z,2.63
2023-03-31T19:22:51.171Z,5.73
2023-03-31T19:25:20.097Z,2.90
2023-03-31T19:27:47.254Z,1.87
2023-03-31T19:30:20.928Z,4.27
2023-03-31T19:32:49.055Z,3.53
2023-03-31T19:35:17.111Z,4.20
2023-03-31T19:37:44.642Z,3.67
2023-03-31T19:40:12.423Z,4.50
2023-03-31T19:42:41.852Z,4.00
2023-03-31T19:45:09.365Z,3.47
2023-03-31T19:47:36.525Z,4.07
2023-03-31T19:50:03.887Z,4.73
2023-03-31T19:52:30.756Z,5.17
2023-03-31T19:54:57.789Z,5.87
2023-03-31T19:57:24.660Z,8.77
2023-03-31T19:59:51.576Z,4.60
2023-03-31T20:02:18.796Z,2.73
2023-03-31T20:04:46.068Z,8.53
2023-03-31T20:07:13.666Z,3.90
2023-03-31T20:09:40.830Z,3.47
2023-03-31T20:12:07.727Z,5.43
2023-03-31T20:14:34.598Z,3.17
2023-03-31T20:17:03.181Z,2.90
2023-03-31T20:19:30.053Z,3.53
2023-03-31T20:21:57.978Z,2.80
2023-03-31T20:24:24.925Z,3.20
2023-03-31T20:26:51.988Z,3.17
2023-03-31T20:29:18.959Z,5.93
2023-03-31T20:31:46.131Z,2.20
2023-03-31T20:34:15.197Z,2.40
2023-03-31T20:36:43.963Z,5.07
2023-03-31T20:39:12.675Z,4.03
2023-03-31T20:41:40.119Z,2.97
2023-03-31T20:44:12.593Z,3.60
2023-03-31T20:46:41.895Z,3.60
2023-03-31T20:49:09.281Z,4.33
2023-03-31T20:51:41.149Z,4.97
2023-03-31T20:54:08.578Z,4.33
2023-03-31T20:56:38.381Z,6.67
2023-03-31T20:59:08.181Z,2.30
2023-03-31T21:01:36.473Z,4.10
2023-03-31T21:04:05.686Z,3.57
2023-03-31T21:06:41.683Z,3.43
2023-03-31T21:09:09.053Z,5.60
2023-03-31T21:11:36.105Z,4.07
2023-03-31T21:14:03.212Z,4.57
2023-03-31T21:16:30.042Z,4.57
2023-03-31T21:18:58.603Z,4.77
2023-03-31T21:21:26.703Z,3.20
2023-03-31T21:23:54.374Z,5.20
2023-03-31T21:26:22.163Z,7.67
2023-03-31T21:28:54.345Z,5.57
2023-03-31T21:31:26.081Z,2.63
2023-03-31T21:33:56.202Z,4.97
2023-03-31T21:36:23.889Z,4.97
2023-03-31T21:38:52.876Z,5.90
2023-03-31T21:41:30.841Z,4.00
2023-03-31T21:44:00.593Z,4.47
2023-03-31T21:46:31.839Z,2.10
2023-03-31T21:48:59.070Z,2.10
2023-03-31T21:51:26.967Z,5.00
2023-03-31T21:53:55.446Z,5.00
2023-03-31T21:56:24.143Z,2.77
2023-03-31T21:58:51.150Z,6.13
2023-03-31T22:01:18.798Z,4.27
2023-03-31T22:03:46.414Z,4.20
2023-03-31T22:06:13.305Z,2.70
2023-03-31T22:08:41.377Z,2.77
2023-03-31T22:11:10.001Z,2.57
2023-03-31T22:13:37.739Z,3.77
2023-03-31T22:16:05.950Z,1.60
2023-03-31T22:18:32.888Z,3.10
2023-03-31T22:21:00.920Z,4.33
2023-03-31T22:23:27.972Z,4.83
2023-03-31T22:25:54.947Z,4.73
2023-03-31T22:28:21.800Z,4.00
2023-03-31T22:30:48.651Z,6.23
2023-03-31T22:33:15.543Z,7.20
2023-03-31T22:35:42.443Z,3.03
2023-03-31T22:38:12.839Z,2.73
2023-03-31T22:40:39.647Z,5.30
2023-03-31T22:43:06.639Z,7.17
2023-03-31T22:45:36.462Z,4.47
2023-03-31T22:48:04.161Z,3.30
2023-03-31T22:50:31.593Z,4.47
2023-03-31T22:52:58.491Z,3.03
2023-03-31T22:55:25.414Z,3.53
2023-03-31T22:57:52.306Z,2.77
2023-03-31T23:00:19.361Z,2.13
2023-03-31T23:02:46.336Z,2.07
2023-03-31T23:05:13.301Z,2.27
2023-03-31T23:07:40.179Z,2.40
2023-03-31T23:10:07.627Z,1.90
2023-03-31T23:12:34.523Z,2.70
2023-03-31T23:15:01.727Z,1.03
2023-03-31T23:17:29.141Z,1.73
2023-03-31T23:19:56.072Z,2.20
2023-03-31T23:22:25.361Z,1.77
2023-03-31T23:24:52.585Z,1.10
2023-03-31T23:27:20.130Z,1.03
2023-03-31T23:29:46.930Z,0.93
2023-03-31T23:32:14.403Z,1.63
2023-03-31T23:34:42.044Z,0.97
2023-03-31T23:37:11.040Z,0.80
2023-03-31T23:39:38.850Z,0.77
2023-03-31T23:42:12.555Z,1.13
2023-03-31T23:44:39.355Z,1.37
2023-03-31T23:47:06.400Z,0.87
2023-03-31T23:49:33.691Z,1.07
2023-03-31T23:52:00.740Z,0.93
2023-03-31T23:54:27.616Z,2.10
2023-03-31T23:56:54.470Z,0.87
2023-03-31T23:59:21.387Z,1.20
